createdAt,value
2022-11-15T00:05:41.476Z,69.63
2022-11-15T00:11:20.491Z,69.34
2022-11-15T00:17:00.153Z,69.71
2022-11-15T00:22:39.476Z,69.59
2022-11-15T00:28:18.856Z,70.25
2022-11-15T00:33:58.186Z,69.53
2022-11-15T00:39:37.466Z,69.12
2022-11-15T00:45:16.903Z,68.83
2022-11-15T00:50:56.044Z,69.14
2022-11-15T00:56:35.150Z,69.06
2022-11-15T01:02:14.545Z,69.21
2022-11-15T01:07:54.908Z,68.81
2022-11-15T01:13:34.726Z,68.97
2022-11-15T01:19:13.966Z,68.83
2022-11-15T01:24:53.271Z,68.81
2022-11-15T01:30:32.674Z,68.73
2022-11-15T01:36:16.879Z,68.30
2022-11-15T01:41:56.329Z,68.04
2022-11-15T01:47:41.316Z,68.77
2022-11-15T01:53:22.540Z,68.71
2022-11-15T01:59:03.674Z,68.45
2022-11-15T02:04:44.197Z,68.63
2022-11-15T02:10:24.578Z,68.80
2022-11-15T02:16:14.580Z,68.98
2022-11-15T02:22:06.212Z,69.32
2022-11-15T02:27:57.687Z,69.72
2022-11-15T02:33:43.059Z,69.66
2022-11-15T02:39:22.307Z,69.51
2022-11-15T02:45:05.622Z,70.19
2022-11-15T02:50:46.252Z,69.68
2022-11-15T02:56:25.695Z,69.38
2022-11-15T03:02:17.611Z,69.91
2022-11-15T03:08:15.559Z,70.24
2022-11-15T03:13:59.961Z,70.86
2022-11-15T03:19:46.756Z,70.30
2022-11-15T03:25:27.969Z,70.13
2022-11-15T03:31:28.288Z,70.40
2022-11-15T03:37:08.239Z,70.47
2022-11-15T03:42:51.087Z,70.56
2022-11-15T03:48:38.158Z,70.33
2022-11-15T03:54:17.789Z,70.51
2022-11-15T03:59:57.215Z,70.39
2022-11-15T04:05:36.348Z,70.23
2022-11-15T04:11:15.643Z,70.78
2022-11-15T04:16:54.731Z,70.33
2022-11-15T04:22:52.498Z,70.10
2022-11-15T04:28:32.210Z,70.60
2022-11-15T04:34:11.468Z,70.22
2022-11-15T04:39:50.646Z,70.99
2022-11-15T04:45:29.912Z,71.23
2022-11-15T04:51:09.299Z,71.36
2022-11-15T04:56:48.804Z,71.56
2022-11-15T05:02:51.051Z,71.89
2022-11-15T05:08:30.550Z,71.71
2022-11-15T05:14:09.761Z,71.79
2022-11-15T05:19:49.249Z,71.87
2022-11-15T05:25:28.549Z,71.82
2022-11-15T05:31:17.266Z,71.86
2022-11-15T05:36:56.862Z,72.16
2022-11-15T05:42:36.177Z,71.94
2022-11-15T05:48:15.931Z,71.18
2022-11-15T05:53:57.361Z,71.49
2022-11-15T05:59:36.844Z,71.97
2022-11-15T06:05:16.197Z,72.00
2022-11-15T06:10:55.502Z,71.73
2022-11-15T06:16:34.638Z,72.17
2022-11-15T06:22:14.228Z,71.81
2022-11-15T06:27:53.932Z,71.88
2022-11-15T06:33:34.154Z,72.14
2022-11-15T06:39:13.793Z,73.30
2022-11-15T06:44:53.341Z,72.13
2022-11-15T06:50:32.390Z,72.08
2022-11-15T06:56:11.502Z,72.37
2022-11-15T07:01:51.118Z,72.16
2022-11-15T07:07:30.224Z,71.48
2022-11-15T07:13:10.037Z,71.85
2022-11-15T07:18:49.726Z,71.90
2022-11-15T07:24:29.270Z,72.33
2022-11-15T07:30:09.145Z,72.16
2022-11-15T07:35:51.256Z,71.84
2022-11-15T07:41:30.881Z,71.55
2022-11-15T07:47:10.113Z,72.08
2022-11-15T07:52:54.340Z,71.97
2022-11-15T07:58:33.748Z,72.35
2022-11-15T08:04:12.958Z,72.64
2022-11-15T08:09:52.364Z,72.36
2022-11-15T08:15:32.294Z,72.51
2022-11-15T08:21:18.185Z,73.04
2022-11-15T08:26:57.923Z,72.56
2022-11-15T08:32:37.536Z,73.16
2022-11-15T08:38:17.030Z,72.87
2022-11-15T08:43:56.732Z,72.56
2022-11-15T08:49:36.056Z,72.47
2022-11-15T08:55:17.532Z,72.91
2022-11-15T09:00:57.433Z,73.59
2022-11-15T09:06:39.738Z,73.20
2022-11-15T09:12:22.771Z,72.33
2022-11-15T09:18:02.326Z,72.66
2022-11-15T09:23:41.767Z,73.01
2022-11-15T09:29:20.828Z,72.68
2022-11-15T09:35:00.398Z,73.04
2022-11-15T09:40:39.990Z,72.57
2022-11-15T09:46:19.069Z,72.19
2022-11-15T09:51:59.141Z,72.23
2022-11-15T09:57:22.611Z,72.19
2022-11-15T10:03:03.736Z,71.94
2022-11-15T10:08:33.775Z,72.50
2022-11-15T10:13:56.383Z,72.80
2022-11-15T10:19:20.198Z,73.72
2022-11-15T10:24:42.954Z,73.15
2022-11-15T10:30:05.133Z,73.61
2022-11-15T10:35:27.677Z,73.79
2022-11-15T10:40:48.363Z,73.96
2022-11-15T10:46:45.072Z,73.70
2022-11-15T10:52:05.473Z,73.11
2022-11-15T10:57:27.930Z,73.21
2022-11-15T11:02:57.975Z,73.44
2022-11-15T11:08:23.945Z,73.50
2022-11-15T11:13:44.427Z,73.50
2022-11-15T11:19:19.486Z,73.08
2022-11-15T11:24:54.098Z,73.52
2022-11-15T11:30:23.165Z,74.25
2022-11-15T11:35:43.929Z,73.29
2022-11-15T11:41:04.679Z,73.15
2022-11-15T11:46:25.692Z,72.90
2022-11-15T11:51:49.573Z,72.73
2022-11-15T11:57:33.722Z,72.97
2022-11-15T12:03:03.758Z,72.58
2022-11-15T12:08:42.145Z,73.19
2022-11-15T12:14:04.907Z,73.10
2022-11-15T12:19:26.094Z,73.51
2022-11-15T12:24:52.933Z,73.40
2022-11-15T12:30:15.000Z,74.19
2022-11-15T12:35:39.974Z,73.35
2022-11-15T12:41:14.619Z,73.61
2022-11-15T12:46:55.774Z,73.20
2022-11-15T12:52:16.845Z,73.66
2022-11-15T12:57:42.515Z,74.21
2022-11-15T13:03:20.421Z,73.61
2022-11-15T13:08:44.903Z,73.89
2022-11-15T13:14:25.563Z,72.93
2022-11-15T13:20:01.548Z,73.36
2022-11-15T13:25:22.348Z,72.97
2022-11-15T13:30:53.307Z,73.65
2022-11-15T13:36:16.616Z,73.32
2022-11-15T13:41:45.492Z,73.96
2022-11-15T13:47:16.030Z,73.92
2022-11-15T13:52:38.141Z,73.84
2022-11-15T13:58:01.363Z,74.38
2022-11-15T14:03:27.372Z,73.94
2022-11-15T14:09:06.937Z,74.17
2022-11-15T14:14:29.833Z,74.12
2022-11-15T14:19:51.202Z,74.49
2022-11-15T14:25:14.956Z,74.38
2022-11-15T14:30:35.699Z,73.97
2022-11-15T14:35:58.212Z,74.83
2022-11-15T14:41:21.024Z,74.77
2022-11-15T14:46:42.005Z,74.30
2022-11-15T14:52:03.002Z,74.49
2022-11-15T14:57:23.990Z,74.30
2022-11-15T15:02:45.938Z,74.52
2022-11-15T15:08:07.279Z,74.37
2022-11-15T15:13:29.751Z,74.14
2022-11-15T15:18:50.810Z,73.95
2022-11-15T15:24:15.993Z,74.55
2022-11-15T15:29:37.087Z,74.87
2022-11-15T15:34:57.533Z,74.91
2022-11-15T15:40:21.148Z,74.55
2022-11-15T15:45:42.434Z,74.60
2022-11-15T15:51:09.121Z,74.92
2022-11-15T15:56:34.038Z,75.13
2022-11-15T16:01:54.975Z,75.19
2022-11-15T16:07:24.602Z,74.78
2022-11-15T16:12:45.221Z,74.54
2022-11-15T16:18:08.715Z,74.83
2022-11-15T16:23:29.401Z,75.08
2022-11-15T16:28:50.294Z,75.34
2022-11-15T16:34:10.876Z,74.40
2022-11-15T16:39:32.409Z,74.50
2022-11-15T16:44:53.144Z,74.52
2022-11-15T16:50:28.102Z,74.70
2022-11-15T16:55:48.970Z,74.49
2022-11-15T17:01:16.715Z,75.86
2022-11-15T17:06:37.150Z,75.25
2022-11-15T17:11:57.958Z,74.66
2022-11-15T17:17:18.825Z,74.77
2022-11-15T17:22:39.624Z,74.94
2022-11-15T17:28:00.413Z,74.89
2022-11-15T17:33:21.402Z,74.24
2022-11-15T17:38:42.596Z,74.79
2022-11-15T17:44:03.770Z,74.82
2022-11-15T17:49:24.742Z,75.17
2022-11-15T17:54:45.591Z,75.36
2022-11-15T18:00:07.329Z,74.72
2022-11-15T18:05:27.875Z,74.50
2022-11-15T18:10:48.791Z,74.05
2022-11-15T18:16:14.424Z,74.59
2022-11-15T18:21:37.633Z,74.45
2022-11-15T18:26:59.417Z,74.90
2022-11-15T18:32:19.916Z,74.82
2022-11-15T18:37:41.345Z,74.67
2022-11-15T18:43:02.223Z,74.63
2022-11-15T18:48:23.395Z,74.27
2022-11-15T18:53:44.484Z,74.73
2022-11-15T18:59:05.652Z,74.49
2022-11-15T19:04:26.271Z,74.54
2022-11-15T19:09:46.791Z,74.96
2022-11-15T19:15:10.249Z,75.02
2022-11-15T19:20:31.152Z,75.08
2022-11-15T19:25:59.533Z,75.58
2022-11-15T19:31:20.794Z,75.22
2022-11-15T19:36:42.426Z,75.06
2022-11-15T19:42:03.109Z,75.07
2022-11-15T19:47:26.858Z,75.38
2022-11-15T19:52:47.475Z,74.77
2022-11-15T19:58:08.359Z,75.05
2022-11-15T20:03:29.786Z,75.21
2022-11-15T20:08:52.196Z,74.94
2022-11-15T20:14:13.454Z,75.75
2022-11-15T20:19:34.004Z,75.27
2022-11-15T20:24:54.823Z,75.67
2022-11-15T20:30:15.608Z,76.21
2022-11-15T20:35:36.606Z,75.14
2022-11-15T20:41:00.162Z,75.14
2022-11-15T20:46:22.447Z,74.80
2022-11-15T20:51:43.946Z,75.18
2022-11-15T20:57:05.038Z,75.13
2022-11-15T21:02:26.332Z,75.10
2022-11-15T21:07:47.734Z,74.79
2022-11-15T21:13:08.743Z,74.66
2022-11-15T21:18:30.524Z,74.91
2022-11-15T21:23:51.505Z,74.57
2022-11-15T21:29:17.051Z,74.51
2022-11-15T21:34:38.211Z,74.82
2022-11-15T21:39:58.870Z,74.80
2022-11-15T21:45:19.640Z,74.38
2022-11-15T21:50:41.742Z,74.06
2022-11-15T21:56:02.683Z,74.04
2022-11-15T22:01:42.852Z,74.20
2022-11-15T22:07:03.396Z,74.42
2022-11-15T22:12:29.437Z,74.51
2022-11-15T22:17:59.529Z,74.67
2022-11-15T22:23:20.402Z,74.72
2022-11-15T22:28:41.239Z,74.87
2022-11-15T22:34:02.094Z,74.43
2022-11-15T22:39:23.025Z,74.66
2022-11-15T22:44:43.619Z,74.85
2022-11-15T22:50:06.523Z,75.28
2022-11-15T22:55:27.322Z,74.97
2022-11-15T23:00:49.086Z,74.76
2022-11-15T23:06:09.832Z,74.19
2022-11-15T23:11:49.422Z,74.56
2022-11-15T23:17:09.913Z,74.42
2022-11-15T23:22:49.032Z,75.03
2022-11-15T23:28:09.743Z,74.84
2022-11-15T23:33:49.242Z,74.45
2022-11-15T23:39:10.225Z,74.07
2022-11-15T23:44:31.312Z,74.01
2022-11-15T23:49:52.364Z,74.31
2022-11-15T23:55:13.108Z,74.56
